createdAt,value
2023-04-16T00:07:37.034Z,72.22
2023-04-16T00:17:38.884Z,75.72
2023-04-16T00:27:40.718Z,46.63
2023-04-16T00:37:44.134Z,56.22
2023-04-16T00:47:46.208Z,55.83
2023-04-16T00:57:48.100Z,39.53
2023-04-16T01:07:51.079Z,45.53
2023-04-16T01:17:53.058Z,49.55
2023-04-16T01:27:54.906Z,48.63
2023-04-16T01:37:56.920Z,48.63
2023-04-16T01:47:59.526Z,37.67
2023-04-16T01:58:01.555Z,50.72
2023-04-16T02:08:07.559Z,40.10
2023-04-16T02:18:09.531Z,52.60
2023-04-16T02:28:13.112Z,32.90
2023-04-16T02:38:18.131Z,45.55
2023-04-16T02:48:20.116Z,45.75
2023-04-16T02:58:23.519Z,33.65
2023-04-16T03:08:25.607Z,46.20
2023-04-16T03:18:27.393Z,63.85
2023-04-16T03:28:29.230Z,76.78
2023-04-16T03:38:31.188Z,74.68
2023-04-16T03:48:34.394Z,51.72
2023-04-16T03:58:36.359Z,46.88
2023-04-16T04:08:39.336Z,49.80
2023-04-16T04:18:44.251Z,56.95
2023-04-16T04:28:46.901Z,48.67
2023-04-16T04:38:50.677Z,44.25
2023-04-16T04:48:52.594Z,52.92
2023-04-16T04:58:55.208Z,52.85
2023-04-16T05:08:57.562Z,44.58
2023-04-16T05:18:59.396Z,43.55
2023-04-16T05:29:01.222Z,42.30
2023-04-16T05:39:06.300Z,63.22
2023-04-16T05:49:08.421Z,51.63
2023-04-16T05:59:10.666Z,54.03
2023-04-16T06:09:12.820Z,46.85
2023-04-16T06:19:14.612Z,50.90
2023-04-16T06:29:16.415Z,50.40
2023-04-16T06:39:18.608Z,30.33
2023-04-16T06:49:21.539Z,9.75
2023-04-16T06:59:23.483Z,7.22
2023-04-16T07:09:25.376Z,9.60
2023-04-16T07:19:27.318Z,14.65
2023-04-16T07:29:29.159Z,16.77
2023-04-16T07:39:31.068Z,7.43
2023-04-16T07:49:32.954Z,6.68
2023-04-16T07:59:34.778Z,7.43
2023-04-16T08:09:37.207Z,8.30
2023-04-16T08:19:39.147Z,7.75
2023-04-16T08:29:40.972Z,6.90
2023-04-16T08:39:42.848Z,7.38
2023-04-16T08:49:45.644Z,8.68
2023-04-16T08:59:48.267Z,5.93
2023-04-16T09:09:53.286Z,5.28
2023-04-16T09:19:55.112Z,6.63
2023-04-16T09:29:57.065Z,6.15
2023-04-16T09:40:03.801Z,7.35
2023-04-16T09:50:06.288Z,4.28
2023-04-16T10:00:10.219Z,6.63
2023-04-16T10:10:12.389Z,12.00
2023-04-16T10:20:17.293Z,8.10
2023-04-16T10:30:19.640Z,4.20
2023-04-16T10:40:26.892Z,4.80
2023-04-16T10:50:35.979Z,4.53
2023-04-16T11:01:01.384Z,6.65
2023-04-16T11:11:05.735Z,5.55
2023-04-16T11:21:11.531Z,18.45
2023-04-16T11:31:13.480Z,10.40
2023-04-16T11:41:20.459Z,7.10
2023-04-16T11:51:22.442Z,6.82
2023-04-16T12:01:24.370Z,9.68
2023-04-16T12:11:40.299Z,11.15
2023-04-16T12:21:47.188Z,9.80
2023-04-16T12:31:50.574Z,7.65
2023-04-16T12:41:52.361Z,6.78
2023-04-16T12:51:54.183Z,11.55
2023-04-16T13:01:56.150Z,7.35
2023-04-16T13:11:58.077Z,10.52
2023-04-16T13:21:59.955Z,9.52
2023-04-16T13:32:02.154Z,7.47
2023-04-16T13:42:04.099Z,7.55
2023-04-16T13:52:05.893Z,8.35
2023-04-16T14:02:08.283Z,6.07
2023-04-16T14:12:10.344Z,7.97
2023-04-16T14:22:12.196Z,7.40
2023-04-16T14:32:14.698Z,4.95
2023-04-16T14:42:16.591Z,8.15
2023-04-16T14:52:18.409Z,5.28
2023-04-16T15:02:20.389Z,12.63
2023-04-16T15:12:22.400Z,6.72
2023-04-16T15:22:24.300Z,10.45
2023-04-16T15:32:26.202Z,9.98
2023-04-16T15:42:28.087Z,9.20
2023-04-16T15:52:30.285Z,11.05
2023-04-16T16:02:32.397Z,10.35
2023-04-16T16:12:35.907Z,12.68
2023-04-16T16:22:37.780Z,10.55
2023-04-16T16:32:39.616Z,14.05
2023-04-16T16:42:41.625Z,9.18
2023-04-16T16:52:44.443Z,15.20
2023-04-16T17:02:46.790Z,8.82
2023-04-16T17:12:49.676Z,8.32
2023-04-16T17:22:51.538Z,7.45
2023-04-16T17:32:53.485Z,10.57
2023-04-16T17:42:55.354Z,9.40
2023-04-16T17:52:57.204Z,10.77
2023-04-16T18:02:59.538Z,15.40
2023-04-16T18:13:01.529Z,23.63
2023-04-16T18:23:03.473Z,13.15
2023-04-16T18:43:10.078Z,15.00
2023-04-16T18:53:11.992Z,15.32
2023-04-16T19:03:13.826Z,16.92
2023-04-16T19:13:16.372Z,13.52
2023-04-16T19:23:18.227Z,14.98
2023-04-16T19:33:20.420Z,15.20
2023-04-16T19:43:22.256Z,17.20
2023-04-16T19:53:24.024Z,13.98
2023-04-16T20:03:25.986Z,15.48
2023-04-16T20:13:27.860Z,17.15
2023-04-16T20:23:29.667Z,12.18
2023-04-16T20:33:31.566Z,17.55
2023-04-16T20:43:33.523Z,21.40
2023-04-16T20:53:36.353Z,18.08
2023-04-16T21:03:38.494Z,16.60
2023-04-16T21:13:40.508Z,17.60
2023-04-16T21:23:42.367Z,25.38
2023-04-16T21:33:44.124Z,23.40
2023-04-16T21:43:46.054Z,20.25
2023-04-16T21:53:47.940Z,24.35
2023-04-16T22:03:49.947Z,24.00
2023-04-16T22:13:51.906Z,19.25
2023-04-16T22:23:53.740Z,21.60
2023-04-16T22:33:55.564Z,29.52
2023-04-16T22:43:57.411Z,26.42
2023-04-16T22:53:59.351Z,25.67
2023-04-16T23:04:01.260Z,27.88
2023-04-16T23:14:03.126Z,29.42
2023-04-16T23:24:05.621Z,47.65
2023-04-16T23:34:07.493Z,29.42
2023-04-16T23:44:09.392Z,27.48
2023-04-16T23:54:11.819Z,39.53
